Time;durP1;ratioP1;P1;durP2;ratioP2;P2;SDS_P1;SDS_P2;PMS_P1;PMS_P2;Temp;Humidity;BMP_temperature;BMP_pressure;BME280_temperature;BME280_humidity;BME280_pressure;Samples;Min_cycle;Max_cycle;Signal;HPM_P1;HPM_P2
2023/01/29 00:02:06;;;;;;;8.02;4.68;;;0.00;99.90;;;;;;4987667;28;20096;-76
2023/01/29 00:04:33;;;;;;;10.85;5.40;;;;;;;;;;4987257;28;20022;-78
2023/01/29 00:06:59;;;;;;;9.52;4.72;;;;;;;;;;4988638;28;20022;-78
2023/01/29 00:09:24;;;;;;;9.05;5.15;;;0.00;99.90;;;;;;4987183;28;20421;-78
2023/01/29 00:11:50;;;;;;;13.98;6.22;;;;;;;;;;4986245;28;20085;-77
2023/01/29 00:14:16;;;;;;;12.32;6.40;;;;;;;;;;4988373;28;20378;-77
2023/01/29 00:16:42;;;;;;;13.23;5.38;;;0.00;99.90;;;;;;4986923;28;20034;-77
2023/01/29 00:19:08;;;;;;;13.43;6.65;;;-0.20;99.90;;;;;;4987408;28;20030;-78
2023/01/29 00:21:33;;;;;;;16.75;7.13;;;-0.10;99.90;;;;;;4988949;28;20041;-78
2023/01/29 00:23:59;;;;;;;15.60;6.25;;;-0.10;99.90;;;;;;4987522;28;20677;-78
2023/01/29 00:26:26;;;;;;;11.43;5.90;;;-0.10;99.90;;;;;;4985380;28;20041;-78
2023/01/29 00:28:52;;;;;;;13.75;7.43;;;-0.20;99.90;;;;;;4987873;28;20089;-78
2023/01/29 00:31:23;;;;;;;13.68;6.65;;;-0.10;99.90;;;;;;4987307;28;20034;-78
2023/01/29 00:33:49;;;;;;;10.15;6.43;;;;;;;;;;4984923;28;20105;-78
2023/01/29 00:36:17;;;;;;;15.63;6.32;;;-0.10;99.90;;;;;;4985600;28;20026;-77
2023/01/29 00:38:43;;;;;;;12.48;6.13;;;-0.20;99.90;;;;;;4987207;28;20097;-77
2023/01/29 00:46:44;;;;;;;13.27;6.43;;;-0.20;99.90;;;;;;4987411;28;20114;-78
2023/01/29 00:49:10;;;;;;;16.23;6.55;;;-0.10;99.90;;;;;;4985216;28;20100;-78
2023/01/29 00:51:37;;;;;;;14.73;7.90;;;-0.30;99.90;;;;;;4986967;28;20466;-79
2023/01/29 00:54:05;;;;;;;16.25;7.40;;;-0.20;99.90;;;;;;4984865;28;20065;-82
2023/01/29 00:56:32;;;;;;;13.98;7.72;;;-0.10;99.90;;;;;;4987034;28;20026;-79
2023/01/29 00:58:58;;;;;;;14.98;6.38;;;-0.10;99.90;;;;;;4987367;28;20061;-79
2023/01/29 01:04:11;;;;;;;15.73;6.45;;;-0.20;99.90;;;;;;4986504;28;20398;-81
2023/01/29 01:06:38;;;;;;;19.75;6.75;;;;;;;;;;4987294;28;20022;-78
2023/01/29 01:11:48;;;;;;;11.88;6.63;;;-0.10;99.90;;;;;;4987499;28;20137;-77
2023/01/29 01:14:14;;;;;;;12.13;7.03;;;-0.20;99.90;;;;;;4987412;28;20121;-78
2023/01/29 01:16:40;;;;;;;16.40;7.18;;;-0.20;99.90;;;;;;4988420;28;20497;-77
2023/01/29 01:19:05;;;;;;;12.00;5.88;;;1.20;99.90;;;;;;4987485;28;20034;-77
2023/01/29 01:21:31;;;;;;;11.57;6.47;;;-0.30;99.90;;;;;;4988900;28;20034;-78
2023/01/29 01:23:57;;;;;;;18.08;6.57;;;;;;;;;;4987520;28;20034;-78
2023/01/29 01:26:23;;;;;;;15.15;6.38;;;;;;;;;;4987370;28;20100;-77
2023/01/29 01:28:49;;;;;;;11.38;6.07;;;-0.20;99.90;;;;;;4987698;28;20467;-77
2023/01/29 01:31:14;;;;;;;15.63;6.50;;;-0.30;99.90;;;;;;4989371;28;20035;-78
2023/01/29 01:33:41;;;;;;;14.82;6.28;;;;;;;;;;4988347;28;20038;-77
2023/01/29 01:36:10;;;;;;;18.10;8.15;;;-0.40;99.90;;;;;;4987697;28;20466;-78
2023/01/29 01:38:43;;;;;;;14.63;7.15;;;-0.50;99.90;;;;;;4987094;28;20085;-77
2023/01/29 01:41:11;;;;;;;9.90;6.43;;;-0.60;99.90;;;;;;4988442;28;20041;-77
2023/01/29 01:43:54;;;;;;;17.08;6.53;;;-0.40;99.90;;;;;;4987200;28;20090;-77
2023/01/29 01:46:21;;;;;;;13.10;6.80;;;0.50;99.90;;;;;;4987299;28;20118;-77
2023/01/29 01:49:15;;;;;;;13.73;5.97;;;-0.50;99.90;;;;;;4989505;28;20022;-77
2023/01/29 01:51:47;;;;;;;14.00;6.35;;;-0.60;99.90;;;;;;4985887;28;20034;-78
2023/01/29 01:54:20;;;;;;;13.95;5.95;;;-0.50;99.90;;;;;;4988600;28;20092;-78
2023/01/29 01:56:54;;;;;;;13.40;7.90;;;-0.50;99.90;;;;;;4988622;28;20713;-77
2023/01/29 01:59:23;;;;;;;14.10;6.60;;;-0.50;99.90;;;;;;4989039;28;20022;-77
2023/01/29 02:01:52;;;;;;;12.63;6.20;;;-0.40;99.90;;;;;;4988470;28;20026;-77
2023/01/29 02:10:14;;;;;;;12.07;6.35;;;-0.40;99.90;;;;;;4990119;28;20069;-77
2023/01/29 02:12:41;;;;;;;11.77;5.57;;;-0.40;99.90;;;;;;4989024;28;20513;-77
2023/01/29 02:15:08;;;;;;;10.95;6.63;;;-0.40;99.90;;;;;;4989388;28;20034;-77
2023/01/29 02:17:34;;;;;;;10.07;6.80;;;-0.30;99.90;;;;;;4990102;28;20170;-77
2023/01/29 02:20:09;;;;;;;9.40;6.70;;;-0.50;99.90;;;;;;4990018;28;20061;-77
2023/01/29 02:22:54;;;;;;;14.95;6.72;;;-0.40;99.90;;;;;;4990023;28;20266;-77
2023/01/29 02:25:35;;;;;;;13.05;5.78;;;;;;;;;;4988743;28;20030;-78
2023/01/29 02:28:20;;;;;;;18.20;7.82;;;-0.50;99.90;;;;;;4990328;28;20073;-79
2023/01/29 02:31:09;;;;;;;15.25;6.78;;;-0.50;99.90;;;;;;4988897;28;20027;-78
2023/01/29 02:33:52;;;;;;;12.70;6.78;;;-0.50;99.90;;;;;;4980242;28;20656;-77
2023/01/29 02:36:27;;;;;;;12.60;5.93;;;-0.60;99.90;;;;;;4988614;28;20371;-77
2023/01/29 02:39:02;;;;;;;12.32;6.28;;;;;;;;;;4990262;28;20053;-81
2023/01/29 02:41:54;;;;;;;10.82;5.03;;;-0.40;99.90;;;;;;4989047;28;20030;-77
2023/01/29 02:44:36;;;;;;;13.20;7.90;;;-0.50;99.90;;;;;;4976192;28;20058;-78
2023/01/29 02:47:15;;;;;;;16.30;6.78;;;-0.40;99.90;;;;;;4984590;28;20033;-77
2023/01/29 02:49:59;;;;;;;11.85;6.55;;;-0.60;99.90;;;;;;4988974;28;20042;-78
2023/01/29 02:52:49;;;;;;;10.07;5.55;;;-0.50;99.90;;;;;;4993022;28;20037;-78
2023/01/29 02:55:28;;;;;;;13.75;7.53;;;-0.50;99.90;;;;;;4992395;28;20382;-77
2023/01/29 02:58:01;;;;;;;12.75;7.43;;;-0.50;99.90;;;;;;4992797;28;20046;-77
2023/01/29 03:00:31;;;;;;;14.52;6.90;;;-0.50;99.90;;;;;;4992642;28;20034;-77
2023/01/29 03:03:13;;;;;;;21.95;6.97;;;-0.70;99.90;;;;;;4992857;28;20133;-77
2023/01/29 03:06:06;;;;;;;12.80;5.35;;;-0.50;99.90;;;;;;4988136;28;20023;-78
2023/01/29 03:08:44;;;;;;;14.07;6.32;;;-0.50;99.90;;;;;;4993048;28;20493;-77
2023/01/29 03:11:15;;;;;;;12.95;7.35;;;-0.30;99.90;;;;;;4993167;28;20038;-78
2023/01/29 03:14:03;;;;;;;13.63;7.47;;;-0.50;99.90;;;;;;4993590;28;20390;-78
2023/01/29 03:16:49;;;;;;;13.80;5.97;;;-0.50;99.90;;;;;;4992754;28;20166;-78
2023/01/29 03:19:24;;;;;;;13.52;5.95;;;-0.50;99.90;;;;;;4992508;28;20509;-78
2023/01/29 03:21:58;;;;;;;18.58;6.40;;;-0.30;99.90;;;;;;4992635;28;20092;-78
2023/01/29 03:32:55;;;;;;;11.98;7.28;;;-0.60;99.90;;;;;;4993583;28;20049;-77
2023/01/29 03:35:38;;;;;;;16.05;8.38;;;-0.60;99.90;;;;;;4993569;28;20091;-77
2023/01/29 03:38:05;;;;;;;13.90;6.90;;;;;;;;;;4993467;28;20483;-76
2023/01/29 03:40:44;;;;;;;14.57;5.65;;;-0.70;99.90;;;;;;4992235;28;20027;-76
2023/01/29 03:43:27;;;;;;;12.82;7.40;;;-0.80;99.90;;;;;;4991530;28;20037;-77
2023/01/29 03:46:10;;;;;;;11.48;6.70;;;-0.70;99.90;;;;;;4991634;28;20041;-77
2023/01/29 03:48:48;;;;;;;12.52;6.63;;;-0.80;99.90;;;;;;4991528;28;20030;-77
2023/01/29 03:51:21;;;;;;;15.30;6.20;;;-0.90;99.90;;;;;;4991014;28;20035;-78
2023/01/29 03:54:39;;;;;;;11.65;6.28;;;-0.90;99.90;;;;;;4991111;28;20033;-76
2023/01/29 03:57:40;;;;;;;13.65;5.93;;;-0.80;99.90;;;;;;4949108;28;20038;-77
2023/01/29 04:00:27;;;;;;;14.77;6.00;;;-0.80;99.90;;;;;;4991295;28;20027;-77
2023/01/29 04:03:18;;;;;;;13.10;6.60;;;-0.40;99.90;;;;;;4990418;28;20061;-77
2023/01/29 04:05:50;;;;;;;10.93;6.53;;;-0.80;99.90;;;;;;4991387;28;20018;-79
2023/01/29 04:08:23;;;;;;;12.68;6.45;;;-1.00;99.90;;;;;;4992813;28;20124;-79
2023/01/29 04:10:53;;;;;;;14.35;6.07;;;-0.90;99.90;;;;;;4992870;28;20058;-80
2023/01/29 04:13:19;;;;;;;14.85;6.43;;;;;;;;;;4992746;28;20061;-79
2023/01/29 04:15:52;;;;;;;17.20;7.25;;;-1.00;99.90;;;;;;4992479;28;20030;-79
2023/01/29 04:18:18;;;;;;;12.13;6.82;;;;;;;;;;4992696;28;20026;-79
2023/01/29 04:20:44;;;;;;;20.02;6.75;;;-0.70;99.90;;;;;;4992037;28;20069;-81
2023/01/29 04:23:24;;;;;;;12.30;6.70;;;-0.90;99.90;;;;;;4992596;28;20034;-82
2023/01/29 04:25:57;;;;;;;12.80;6.07;;;;;;;;;;4992677;28;20030;-80
2023/01/29 04:28:39;;;;;;;12.98;5.07;;;-0.90;99.90;;;;;;4990902;28;20034;-78
2023/01/29 04:31:08;;;;;;;13.43;6.10;;;-1.10;99.90;;;;;;4990920;28;20515;-78
2023/01/29 04:33:34;;;;;;;15.23;7.43;;;-1.10;99.90;;;;;;4991246;28;20033;-79
2023/01/29 04:36:19;;;;;;;15.35;7.05;;;-1.40;99.90;;;;;;4990925;28;20025;-80
2023/01/29 04:39:14;;;;;;;14.40;7.43;;;-1.10;99.90;;;;;;4990939;28;20125;-79
2023/01/29 04:41:50;;;;;;;17.05;7.88;;;-1.10;99.90;;;;;;4990674;28;20029;-77
2023/01/29 04:44:22;;;;;;;15.63;8.52;;;-1.10;99.90;;;;;;4990533;28;20038;-76
2023/01/29 04:46:53;;;;;;;16.17;6.18;;;-1.20;99.90;;;;;;4990792;28;20466;-78
2023/01/29 04:49:28;;;;;;;18.63;7.13;;;-1.10;99.90;;;;;;4990910;28;20037;-77
2023/01/29 04:52:16;;;;;;;15.63;6.57;;;-1.10;99.90;;;;;;4992376;28;20030;-80
2023/01/29 04:54:54;;;;;;;15.27;7.40;;;;;;;;;;4990937;28;20053;-77
2023/01/29 04:57:32;;;;;;;12.98;6.35;;;-1.00;99.90;;;;;;4994409;28;20072;-80
2023/01/29 05:00:08;;;;;;;14.40;6.70;;;-1.10;99.90;;;;;;4994017;28;20026;-80
2023/01/29 05:02:38;;;;;;;18.45;6.38;;;-1.20;99.90;;;;;;4992152;28;20027;-80
2023/01/29 05:05:05;;;;;;;12.68;6.60;;;;;;;;;;4992030;28;20389;-79
2023/01/29 05:07:31;;;;;;;16.90;6.55;;;;;;;;;;4992228;28;20470;-77
2023/01/29 05:09:57;;;;;;;12.38;5.88;;;;;;;;;;4991953;28;20425;-83
2023/01/29 05:12:27;;;;;;;11.00;5.05;;;-1.20;99.90;;;;;;4991288;28;20092;-81
2023/01/29 05:14:55;;;;;;;19.67;6.95;;;-1.10;99.90;;;;;;4992298;28;20101;-81
2023/01/29 05:17:20;;;;;;;11.23;5.88;;;-1.10;99.90;;;;;;4992821;28;20545;-83
2023/01/29 05:19:46;;;;;;;14.23;5.90;;;-1.00;99.90;;;;;;4992995;28;20019;-80
2023/01/29 05:22:16;;;;;;;16.63;7.57;;;-1.00;99.90;;;;;;4992007;28;20505;-79
2023/01/29 05:24:42;;;;;;;14.25;6.05;;;-1.00;99.90;;;;;;4991767;28;20506;-82
2023/01/29 05:30:02;;;;;;;15.45;7.57;;;-1.10;99.90;;;;;;4992320;28;20037;-80
2023/01/29 05:32:28;;;;;;;11.00;5.80;;;-1.10;99.90;;;;;;4991619;28;20228;-82
2023/01/29 05:34:53;;;;;;;16.58;8.63;;;-1.30;99.90;;;;;;4991487;28;20146;-83
2023/01/29 05:37:19;;;;;;;11.18;6.00;;;-1.40;99.90;;;;;;4990898;28;20431;-80
2023/01/29 05:39:44;;;;;;;10.13;5.75;;;-1.20;99.90;;;;;;4995093;28;20033;-81
2023/01/29 05:42:10;;;;;;;13.20;5.38;;;-1.30;99.90;;;;;;4996114;28;20441;-79
2023/01/29 05:44:35;;;;;;;9.35;6.30;;;-1.20;99.90;;;;;;4998663;28;20466;-80
2023/01/29 05:47:01;;;;;;;16.75;6.88;;;-1.20;99.90;;;;;;4998113;28;20026;-79
2023/01/29 05:49:27;;;;;;;14.77;5.75;;;;;;;;;;4998566;28;20025;-78
2023/01/29 05:51:53;;;;;;;20.58;8.77;;;;;;;;;;4993517;28;20026;-82
2023/01/29 05:54:19;;;;;;;10.48;4.72;;;-1.10;99.90;;;;;;4993561;28;20054;-80
2023/01/29 05:56:45;;;;;;;12.43;5.60;;;;;;;;;;4997933;28;20022;-79
2023/01/29 05:59:10;;;;;;;9.40;5.68;;;-1.10;99.90;;;;;;4997291;28;20057;-77
2023/01/29 06:01:36;;;;;;;14.23;6.72;;;;;;;;;;4995386;28;20031;-76
2023/01/29 06:04:03;;;;;;;16.08;6.30;;;;;;;;;;4993812;28;20044;-80
2023/01/29 06:06:28;;;;;;;14.45;5.93;;;-1.00;99.90;;;;;;4989419;28;20401;-77
2023/01/29 06:08:55;;;;;;;10.60;5.68;;;-1.20;99.90;;;;;;4989228;28;20109;-82
2023/01/29 06:11:21;;;;;;;15.30;5.70;;;;;;;;;;4990628;28;20047;-81
2023/01/29 06:13:47;;;;;;;13.48;7.18;;;-1.20;99.90;;;;;;4990829;28;20054;-80
2023/01/29 06:16:13;;;;;;;16.42;6.75;;;-1.20;99.90;;;;;;4989892;28;20068;-81
2023/01/29 06:18:41;;;;;;;21.60;8.10;;;;;;;;;;4990709;28;20022;-80
2023/01/29 06:21:09;;;;;;;15.00;8.32;;;-1.10;99.90;;;;;;4990465;28;20022;-81
2023/01/29 06:23:36;;;;;;;15.02;7.05;;;-1.10;99.90;;;;;;4990573;28;20030;-83
2023/01/29 06:26:07;;;;;;;16.90;6.35;;;-1.10;99.90;;;;;;4990382;28;20101;-84
2023/01/29 06:28:33;;;;;;;18.25;7.88;;;-1.10;99.90;;;;;;4989773;28;20026;-80
2023/01/29 06:31:01;;;;;;;16.80;7.65;;;-0.40;99.90;;;;;;4989438;28;20022;-85
2023/01/29 06:33:27;;;;;;;13.90;6.03;;;-1.00;99.90;;;;;;4990319;28;20022;-77
2023/01/29 06:35:58;;;;;;;16.25;6.63;;;-1.10;99.90;;;;;;4990797;28;20433;-77
2023/01/29 06:38:24;;;;;;;13.20;6.03;;;-1.10;99.90;;;;;;4994964;28;20065;-82
2023/01/29 06:40:50;;;;;;;16.25;6.82;;;-1.20;99.90;;;;;;5002571;28;20022;-77
2023/01/29 06:43:16;;;;;;;17.23;8.20;;;-1.20;99.90;;;;;;5004446;28;20084;-79
2023/01/29 06:45:49;;;;;;;11.70;6.57;;;-1.20;99.90;;;;;;5005594;28;20038;-77
2023/01/29 06:48:15;;;;;;;25.08;10.02;;;-1.30;99.90;;;;;;5004880;28;20089;-77
2023/01/29 06:50:41;;;;;;;13.52;7.47;;;-1.20;99.90;;;;;;5005562;28;20023;-76
2023/01/29 06:53:07;;;;;;;23.90;12.13;;;-0.90;99.90;;;;;;5003827;28;20410;-77
2023/01/29 06:55:33;;;;;;;16.38;8.05;;;-1.30;99.90;;;;;;5004242;28;20378;-77
2023/01/29 06:57:59;;;;;;;11.57;6.57;;;-1.20;99.90;;;;;;5005553;28;20046;-77
2023/01/29 07:00:24;;;;;;;17.80;6.65;;;-1.30;99.90;;;;;;5004470;28;20038;-77
2023/01/29 07:02:50;;;;;;;10.70;6.63;;;-1.30;99.90;;;;;;5004378;28;20030;-77
2023/01/29 07:05:16;;;;;;;26.35;11.48;;;-1.40;99.90;;;;;;5008299;28;20308;-77
2023/01/29 07:07:41;;;;;;;17.42;6.57;;;-1.20;99.90;;;;;;5006319;28;20030;-77
2023/01/29 07:10:08;;;;;;;16.48;6.65;;;-1.20;99.90;;;;;;5004459;28;20461;-76
2023/01/29 07:12:33;;;;;;;19.08;7.85;;;-1.20;99.90;;;;;;5009181;28;20042;-78
2023/01/29 07:14:59;;;;;;;12.40;7.35;;;-1.10;99.90;;;;;;5014825;28;20089;-80
2023/01/29 07:17:24;;;;;;;14.43;7.05;;;-0.90;99.90;;;;;;5010506;28;20031;-77
2023/01/29 07:19:50;;;;;;;12.95;7.15;;;-1.00;99.90;;;;;;5001230;28;20041;-77
2023/01/29 07:22:16;;;;;;;15.45;6.55;;;;;;;;;;5006036;28;20030;-77
2023/01/29 07:24:42;;;;;;;16.77;7.85;;;;;;;;;;5000413;28;20035;-88
2023/01/29 07:27:08;;;;;;;17.85;7.05;;;;;;;;;;4989243;28;20316;-82
2023/01/29 07:29:34;;;;;;;12.98;7.90;;;;;;;;;;4989900;28;20597;-82
2023/01/29 07:32:00;;;;;;;17.42;7.18;;;;;;;;;;4989743;28;20265;-80
2023/01/29 07:34:26;;;;;;;16.13;8.05;;;-1.00;99.90;;;;;;4989793;28;20027;-77
2023/01/29 07:36:55;;;;;;;13.45;7.70;;;-1.00;99.90;;;;;;4988575;28;20311;-83
2023/01/29 07:39:21;;;;;;;;;;;-1.00;99.90;;;;;;4993758;28;20117;-91
2023/01/29 07:41:47;;;;;;;17.85;7.68;;;-1.00;99.90;;;;;;4992056;28;20468;-76
2023/01/29 07:44:13;;;;;;;18.13;8.07;;;;;;;;;;4993500;28;20105;-84
2023/01/29 07:46:39;;;;;;;14.80;7.80;;;;;;;;;;4993490;28;20101;-86
2023/01/29 07:49:04;;;;;;;15.07;7.15;;;-0.90;99.90;;;;;;4993433;28;20101;-82
2023/01/29 07:51:30;;;;;;;15.52;7.32;;;-0.90;99.90;;;;;;4991847;28;20469;-85
2023/01/29 07:53:55;;;;;;;20.08;8.40;;;-1.00;99.90;;;;;;4992064;28;20129;-88
2023/01/29 07:56:22;;;;;;;12.68;7.05;;;;;;;;;;4993346;28;20026;-88
2023/01/29 07:58:48;;;;;;;14.63;7.57;;;;;;;;;;4993006;28;20058;-77
2023/01/29 08:01:14;;;;;;;14.57;7.03;;;;;;;;;;4993295;28;20105;-77
2023/01/29 08:03:40;;;;;;;20.02;8.00;;;;;;;;;;4993176;28;20050;-92
2023/01/29 08:06:05;;;;;;;14.55;6.30;;;-1.10;99.90;;;;;;4993246;28;20037;-87
2023/01/29 08:08:31;;;;;;;25.77;12.02;;;-1.10;99.90;;;;;;4993468;28;20038;-77
2023/01/29 08:11:00;;;;;;;23.00;6.40;;;-1.10;99.90;;;;;;4991821;28;20042;-77
2023/01/29 08:13:26;;;;;;;14.35;7.07;;;;;;;;;;4991758;28;20054;-90
2023/01/29 08:15:52;;;;;;;17.30;8.93;;;-1.30;99.90;;;;;;4993312;28;20030;-91
2023/01/29 08:18:18;;;;;;;17.60;7.88;;;;;;;;;;4993311;28;20081;-77
2023/01/29 08:20:44;;;;;;;15.95;8.50;;;;;;;;;;4993252;28;20026;-78
2023/01/29 08:23:13;;;;;;;21.00;7.97;;;-1.10;99.90;;;;;;4993009;28;20041;-77
2023/01/29 08:25:39;;;;;;;16.70;7.25;;;-1.00;99.90;;;;;;4992251;28;20118;-88
2023/01/29 08:28:05;;;;;;;16.40;7.63;;;;;;;;;;4992025;28;20265;-91
2023/01/29 08:30:32;;;;;;;18.60;8.00;;;-1.00;99.90;;;;;;4991618;28;20280;-78
2023/01/29 08:32:58;;;;;;;17.70;7.97;;;-1.10;99.90;;;;;;4992499;28;20109;-77
2023/01/29 08:35:24;;;;;;;14.80;7.75;;;-1.00;99.90;;;;;;4992274;28;20102;-79
2023/01/29 08:37:54;;;;;;;14.82;7.97;;;-0.90;99.90;;;;;;4990866;28;20622;-77
2023/01/29 08:40:20;;;;;;;18.95;7.97;;;-1.00;99.90;;;;;;4990648;28;20027;-90
2023/01/29 08:42:46;;;;;;;17.33;7.38;;;;;;;;;;4991563;28;20528;-80
2023/01/29 08:45:12;;;;;;;15.88;8.32;;;-0.70;99.90;;;;;;4993314;28;20031;-77
2023/01/29 08:47:38;;;;;;;15.10;6.95;;;;;;;;;;4992950;28;20423;-80
2023/01/29 08:50:04;;;;;;;16.50;8.52;;;-0.60;99.90;;;;;;4992497;28;20026;-77
2023/01/29 08:52:30;;;;;;;19.85;7.20;;;-0.60;99.90;;;;;;4992196;28;20022;-90
2023/01/29 08:54:55;;;;;;;18.35;8.77;;;-0.50;99.90;;;;;;4991655;28;20023;-76
2023/01/29 08:57:21;;;;;;;22.30;9.18;;;-0.50;99.90;;;;;;4991924;28;20022;-76
2023/01/29 08:59:46;;;;;;;14.95;7.43;;;-0.60;99.90;;;;;;4997353;28;20094;-84
2023/01/29 09:02:13;;;;;;;15.52;6.65;;;;;;;;;;4981186;28;20045;-85
2023/01/29 09:04:38;;;;;;;17.15;7.93;;;-0.50;99.90;;;;;;4979797;28;20023;-92
2023/01/29 09:07:04;;;;;;;22.20;9.00;;;-0.60;99.90;;;;;;4981049;28;20029;-80
2023/01/29 09:09:30;;;;;;;15.25;7.45;;;;;;;;;;5007325;28;20026;-76
2023/01/29 09:11:56;;;;;;;16.83;7.25;;;;;;;;;;4990081;28;20489;-77
2023/01/29 09:14:21;;;;;;;13.57;7.38;;;-0.20;99.90;;;;;;4987867;28;20023;-78
2023/01/29 09:16:47;;;;;;;17.90;8.10;;;-0.20;99.90;;;;;;4986646;28;20337;-77
2023/01/29 09:19:12;;;;;;;13.88;7.43;;;-0.30;99.90;;;;;;4985725;28;20613;-85
2023/01/29 09:21:38;;;;;;;13.55;6.68;;;;;;;;;;4987470;28;20062;-77
2023/01/29 09:24:04;;;;;;;14.07;6.35;;;-0.40;99.90;;;;;;4986914;28;20576;-77
2023/01/29 09:26:30;;;;;;;12.98;6.82;;;-0.50;99.90;;;;;;4990044;28;20516;-83
2023/01/29 09:28:56;;;;;;;15.73;7.65;;;-0.40;99.90;;;;;;4987985;28;20029;-82
2023/01/29 09:31:21;;;;;;;10.40;6.93;;;-0.40;99.90;;;;;;4988899;28;20029;-79
2023/01/29 09:33:47;;;;;;;14.13;8.02;;;;;;;;;;4995950;28;20010;-83
2023/01/29 09:36:13;;;;;;;10.50;6.50;;;-0.30;99.90;;;;;;4993289;28;20054;-79
2023/01/29 09:38:39;;;;;;;12.10;6.32;;;;;;;;;;5000354;28;20034;-79
2023/01/29 09:41:36;;;;;;;13.98;6.65;;;-0.30;99.90;;;;;;5011581;23;20058;-80
2023/01/29 09:44:12;;;;;;;16.42;6.88;;;-0.30;99.90;;;;;;4994123;28;20166;-76
2023/01/29 09:46:42;;;;;;;12.48;6.38;;;-0.10;99.90;;;;;;4991074;28;20026;-85
2023/01/29 09:49:31;;;;;;;14.50;6.05;;;-0.10;99.90;;;;;;4989255;28;20058;-86
2023/01/29 09:52:10;;;;;;;19.02;6.88;;;-0.30;99.90;;;;;;4988798;28;20041;-86
2023/01/29 09:54:55;;;;;;;17.58;6.10;;;-0.30;99.90;;;;;;4989461;28;20065;-91
2023/01/29 09:57:38;;;;;;;12.35;7.35;;;-0.20;99.90;;;;;;4977875;28;20042;-88
2023/01/29 10:00:04;;;;;;;28.55;10.75;;;;;;;;;;4988829;28;20033;-86
2023/01/29 10:02:35;;;;;;;14.63;5.88;;;-0.20;99.90;;;;;;4988645;28;20510;-82
2023/01/29 10:05:39;;;;;;;11.15;5.25;;;-0.20;99.90;;;;;;4993391;28;20026;-86
2023/01/29 10:08:24;;;;;;;14.27;6.50;;;0.00;99.90;;;;;;4991181;28;20041;-86
2023/01/29 10:11:11;;;;;;;15.40;7.40;;;0.10;99.90;;;;;;4989005;28;20092;-85
2023/01/29 10:13:40;;;;;;;18.23;8.18;;;;;;;;;;4979190;28;20042;-77
2023/01/29 10:16:30;;;;;;;14.48;6.35;;;0.10;99.90;;;;;;4986819;28;20026;-76
2023/01/29 10:19:40;;;;;;;12.48;5.65;;;0.40;99.90;;;;;;4987012;28;20058;-86
2023/01/29 10:22:06;;;;;;;10.18;5.38;;;;;;;;;;4995125;28;20019;-76
2023/01/29 10:24:40;;;;;;;12.27;5.28;;;0.80;99.90;;;;;;4994785;28;20036;-77
2023/01/29 10:27:31;;;;;;;13.35;6.68;;;1.00;99.90;;;;;;4990419;28;20103;-77
2023/01/29 10:29:57;;;;;;;11.73;6.38;;;1.30;99.90;;;;;;4989127;28;20014;-77
2023/01/29 10:32:25;;;;;;;14.23;5.97;;;2.40;99.90;;;;;;4989139;28;20022;-77
2023/01/29 10:35:26;;;;;;;14.35;6.43;;;1.40;99.90;;;;;;4987229;28;20426;-85
2023/01/29 10:37:53;;;;;;;10.88;5.13;;;1.50;99.90;;;;;;5003929;28;20053;-79
2023/01/29 10:40:31;;;;;;;19.05;6.72;;;1.50;99.90;;;;;;4989689;28;20050;-78
2023/01/29 10:43:16;;;;;;;13.38;5.45;;;1.50;99.90;;;;;;4989529;28;20030;-77
2023/01/29 10:46:03;;;;;;;14.38;6.57;;;1.40;99.90;;;;;;5000138;28;20050;-79
2023/01/29 10:48:51;;;;;;;15.38;5.63;;;1.90;99.90;;;;;;4998145;28;20046;-77
2023/01/29 10:51:22;;;;;;;12.88;5.50;;;2.40;99.90;;;;;;4998098;28;20026;-78
2023/01/29 10:54:09;;;;;;;11.57;5.18;;;3.00;99.90;;;;;;4997067;28;20165;-79
2023/01/29 10:56:50;;;;;;;8.35;5.15;;;;;;;;;;4991087;28;20454;-78
2023/01/29 10:59:22;;;;;;;13.07;6.28;;;;;;;;;;4998219;28;20102;-76
2023/01/29 11:01:48;;;;;;;11.07;5.25;;;2.80;99.90;;;;;;4991550;28;20029;-76
2023/01/29 11:04:14;;;;;;;7.95;4.40;;;2.70;99.90;;;;;;4984776;28;20138;-75
2023/01/29 11:06:40;;;;;;;10.88;6.32;;;;;;;;;;4976432;28;20118;-76
2023/01/29 11:09:25;;;;;;;7.75;4.38;;;2.60;99.90;;;;;;4987876;28;20034;-76
2023/01/29 11:12:19;;;;;;;8.82;5.68;;;3.90;99.90;;;;;;5011912;28;20050;-78
2023/01/29 11:15:12;;;;;;;9.88;4.68;;;3.00;99.90;;;;;;5012297;28;20031;-77
2023/01/29 11:17:38;;;;;;;9.77;4.68;;;;;;;;;;4996376;28;20027;-76
2023/01/29 11:20:23;;;;;;;12.48;5.47;;;3.10;99.90;;;;;;5001272;28;20019;-76
2023/01/29 11:22:54;;;;;;;10.13;4.82;;;3.40;99.90;;;;;;4997928;28;20092;-75
2023/01/29 11:25:27;;;;;;;10.23;5.10;;;3.60;99.90;;;;;;5006579;28;20057;-76
2023/01/29 11:28:01;;;;;;;9.45;5.03;;;3.80;99.90;;;;;;5018316;28;20103;-84
2023/01/29 11:30:29;;;;;;;7.10;4.22;;;3.70;99.90;;;;;;5004105;28;20385;-92
2023/01/29 11:33:20;;;;;;;5.20;3.97;;;3.60;99.90;;;;;;5004583;28;20022;-83
2023/01/29 11:35:55;;;;;;;12.18;5.05;;;3.30;99.90;;;;;;5010094;28;20011;-75
2023/01/29 11:38:38;;;;;;;8.57;4.47;;;;;;;;;;5015076;28;20021;-79
2023/01/29 11:41:06;;;;;;;5.45;4.30;;;;;;;;;;5006326;28;20309;-77
2023/01/29 11:43:33;;;;;;;8.55;4.43;;;;;;;;;;4991342;28;20486;-76
2023/01/29 11:46:05;;;;;;;5.20;3.70;;;3.80;99.90;;;;;;4991137;28;20034;-77
2023/01/29 11:48:49;;;;;;;6.82;4.05;;;3.80;99.90;;;;;;4996543;28;20050;-76
2023/01/29 11:51:24;;;;;;;6.70;3.53;;;3.90;99.90;;;;;;4998515;28;20053;-76
2023/01/29 11:53:53;;;;;;;7.93;5.30;;;3.40;99.90;;;;;;4999500;28;20659;-76
2023/01/29 11:56:40;;;;;;;8.60;4.35;;;3.50;99.90;;;;;;4997785;28;20509;-75
2023/01/29 11:59:20;;;;;;;9.32;4.65;;;3.70;99.90;;;;;;4997810;28;20029;-79
2023/01/29 12:01:46;;;;;;;7.60;3.95;;;2.90;99.90;;;;;;4997513;28;20029;-78
2023/01/29 12:04:17;;;;;;;8.93;4.55;;;;;;;;;;4996140;28;20522;-77
2023/01/29 12:06:47;;;;;;;9.65;4.05;;;3.20;99.90;;;;;;4990679;28;20113;-77
2023/01/29 12:09:16;;;;;;;;;;;3.10;99.90;;;;;;4977805;28;20027;-78
2023/01/29 12:11:41;;;;;;;9.07;4.18;;;2.70;99.90;;;;;;4970056;28;20209;-80
2023/01/29 12:14:27;;;;;;;5.55;3.70;;;2.70;99.90;;;;;;4968941;28;20306;-77
2023/01/29 12:17:25;;;;;;;9.48;4.35;;;2.50;99.90;;;;;;4974322;28;20019;-91
2023/01/29 12:19:57;;;;;;;10.48;4.07;;;2.60;99.90;;;;;;4983084;28;20042;-79
2023/01/29 12:22:29;;;;;;;12.88;4.60;;;;;;;;;;4992224;28;20034;-80
2023/01/29 12:25:15;;;;;;;8.13;4.82;;;2.70;99.90;;;;;;5006559;28;20053;-82
2023/01/29 12:28:07;;;;;;;11.38;5.13;;;3.00;99.90;;;;;;5003796;28;20391;-90
2023/01/29 12:30:49;;;;;;;10.85;5.70;;;2.80;99.90;;;;;;5014487;28;20031;-77
2023/01/29 12:33:24;;;;;;;7.28;4.63;;;3.50;99.90;;;;;;5011697;28;20038;-82
2023/01/29 12:35:56;;;;;;;11.55;4.57;;;2.90;99.90;;;;;;5008045;28;20033;-76
2023/01/29 12:38:23;;;;;;;8.90;4.55;;;3.50;99.90;;;;;;5019413;28;20010;-76
2023/01/29 12:41:09;;;;;;;11.60;6.22;;;2.70;99.90;;;;;;5013122;28;20042;-85
2023/01/29 12:43:46;;;;;;;9.75;5.00;;;;;;;;;;5010897;28;20070;-79
2023/01/29 12:46:27;;;;;;;11.23;4.28;;;2.60;99.90;;;;;;5012471;28;20026;-83
2023/01/29 12:48:56;;;;;;;7.93;4.75;;;2.70;99.90;;;;;;5019778;28;20018;-76
2023/01/29 12:51:32;;;;;;;6.97;4.07;;;3.30;99.90;;;;;;5019298;28;20093;-76
2023/01/29 12:54:36;;;;;;;9.35;4.85;;;2.80;99.90;;;;;;5020269;28;20115;-76
2023/01/29 12:57:08;;;;;;;9.45;4.43;;;2.90;99.90;;;;;;5014360;28;20058;-88
2023/01/29 12:59:36;;;;;;;6.90;4.43;;;2.80;99.90;;;;;;5005083;28;20318;-84
2023/01/29 13:02:15;;;;;;;8.10;4.07;;;2.80;99.90;;;;;;5004509;28;20029;-76
2023/01/29 13:04:59;;;;;;;5.57;4.20;;;2.40;99.90;;;;;;4994294;28;20869;-78
2023/01/29 13:07:30;;;;;;;6.82;3.10;;;2.50;99.90;;;;;;4987838;28;20086;-78
2023/01/29 13:10:12;;;;;;;6.38;3.65;;;3.00;99.90;;;;;;4997713;28;20030;-79
2023/01/29 13:12:45;;;;;;;5.50;2.92;;;3.00;99.90;;;;;;4999697;28;20022;-77
2023/01/29 13:15:23;;;;;;;4.95;3.85;;;3.10;99.90;;;;;;5012588;28;20037;-82
2023/01/29 13:17:54;;;;;;;11.65;5.15;;;3.10;99.90;;;;;;5016070;28;20014;-83
2023/01/29 13:20:30;;;;;;;9.15;4.90;;;3.10;99.90;;;;;;5004995;28;20325;-77
2023/01/29 13:23:35;;;;;;;13.38;5.63;;;3.70;99.90;;;;;;4980969;28;20047;-78
2023/01/29 13:26:01;;;;;;;7.55;4.05;;;3.90;99.90;;;;;;4912107;29;20020;-77
2023/01/29 13:28:27;;;;;;;5.20;3.35;;;3.60;99.90;;;;;;4971378;28;20065;-78
2023/01/29 13:31:23;;;;;;;7.53;3.58;;;5.20;99.90;;;;;;4988558;28;20013;-82
2023/01/29 13:34:11;;;;;;;5.85;3.42;;;3.70;99.90;;;;;;5015305;28;20027;-82
2023/01/29 13:36:43;;;;;;;7.22;3.85;;;4.10;99.90;;;;;;4996421;28;20021;-81
2023/01/29 13:39:25;;;;;;;6.07;3.50;;;4.30;99.90;;;;;;4998936;28;20034;-78
2023/01/29 13:41:52;;;;;;;5.53;3.33;;;4.80;99.90;;;;;;4998746;28;20058;-78
2023/01/29 13:44:28;;;;;;;7.53;4.28;;;4.90;99.90;;;;;;4998444;28;20034;-80
2023/01/29 13:47:02;;;;;;;4.18;3.50;;;5.30;99.90;;;;;;4989780;28;20023;-78
2023/01/29 13:49:36;;;;;;;8.35;4.30;;;4.80;99.90;;;;;;4984823;28;20035;-78
2023/01/29 13:52:21;;;;;;;9.70;4.72;;;4.60;98.50;;;;;;5001129;28;20022;-78
2023/01/29 13:54:53;;;;;;;7.35;3.63;;;;;;;;;;4999036;28;20027;-78
2023/01/29 13:57:33;;;;;;;6.95;3.88;;;4.90;99.10;;;;;;4992864;28;20677;-78
2023/01/29 13:59:58;;;;;;;7.97;3.85;;;4.80;99.60;;;;;;4997789;28;20057;-78